createdAt,value
2023-05-07T00:01:47.950Z,6.17
2023-05-07T00:04:38.768Z,7.70
2023-05-07T00:07:27.545Z,5.47
2023-05-07T00:10:15.995Z,5.70
2023-05-07T00:13:04.538Z,6.80
2023-05-07T00:15:53.041Z,5.03
2023-05-07T00:18:42.826Z,5.70
2023-05-07T00:21:31.602Z,6.53
2023-05-07T00:24:20.076Z,5.67
2023-05-07T00:27:08.525Z,5.40
2023-05-07T00:29:57.092Z,5.50
2023-05-07T00:32:46.438Z,5.97
2023-05-07T00:35:36.354Z,6.60
2023-05-07T00:38:25.065Z,7.23
2023-05-07T00:41:13.534Z,6.47
2023-05-07T00:44:02.599Z,6.40
2023-05-07T00:46:51.289Z,5.47
2023-05-07T00:49:42.248Z,5.97
2023-05-07T00:52:32.216Z,8.33
2023-05-07T00:55:20.933Z,5.73
2023-05-07T00:58:09.394Z,6.33
2023-05-07T01:00:57.928Z,10.20
2023-05-07T01:03:46.513Z,5.73
2023-05-07T01:06:35.550Z,5.50
2023-05-07T01:09:26.813Z,12.40
2023-05-07T01:12:15.406Z,6.47
2023-05-07T01:15:04.468Z,6.20
2023-05-07T01:17:53.030Z,6.10
2023-05-07T01:20:42.194Z,5.90
2023-05-07T01:23:32.403Z,9.80
2023-05-07T01:26:21.163Z,6.80
2023-05-07T01:29:09.717Z,5.97
2023-05-07T01:31:59.845Z,8.40
2023-05-07T01:34:49.975Z,5.70
2023-05-07T01:37:38.701Z,6.60
2023-05-07T01:40:29.488Z,6.17
2023-05-07T01:43:18.095Z,6.70
2023-05-07T01:46:06.905Z,6.80
2023-05-07T01:48:55.402Z,6.07
2023-05-07T01:51:43.910Z,6.10
2023-05-07T01:54:32.571Z,6.33
2023-05-07T01:57:22.838Z,11.37
2023-05-07T02:00:12.549Z,6.23
2023-05-07T02:03:01.518Z,6.53
2023-05-07T02:05:50.453Z,6.30
2023-05-07T02:08:38.980Z,6.57
2023-05-07T02:11:27.942Z,7.03
2023-05-07T02:14:17.741Z,6.57
2023-05-07T02:17:06.226Z,7.13
2023-05-07T02:19:54.648Z,6.40
2023-05-07T02:22:43.077Z,7.23
2023-05-07T02:25:31.574Z,6.10
2023-05-07T02:28:20.052Z,7.03
2023-05-07T02:31:09.857Z,5.20
2023-05-07T02:33:58.321Z,12.90
2023-05-07T02:36:46.940Z,5.83
2023-05-07T02:39:35.862Z,5.17
2023-05-07T02:42:24.354Z,6.30
2023-05-07T02:45:13.166Z,5.37
2023-05-07T02:48:03.008Z,6.37
2023-05-07T02:50:51.545Z,6.30
2023-05-07T02:53:40.046Z,6.77
2023-05-07T02:56:28.852Z,8.63
2023-05-07T02:59:17.345Z,6.67
2023-05-07T03:02:06.478Z,6.30
2023-05-07T03:04:56.283Z,6.90
2023-05-07T03:07:47.042Z,5.50
2023-05-07T03:10:35.602Z,6.23
2023-05-07T03:13:24.211Z,8.40
2023-05-07T03:16:12.805Z,5.70
2023-05-07T03:19:01.397Z,6.17
2023-05-07T03:21:51.390Z,8.43
2023-05-07T03:24:39.900Z,5.57
2023-05-07T03:27:28.358Z,11.13
2023-05-07T03:30:16.849Z,7.43
2023-05-07T03:33:05.624Z,6.27
2023-05-07T03:35:54.095Z,7.10
2023-05-07T03:38:43.898Z,5.57
2023-05-07T03:41:32.621Z,12.23
2023-05-07T03:44:21.144Z,6.60
2023-05-07T03:47:11.118Z,6.00
2023-05-07T03:50:00.400Z,6.70
2023-05-07T03:52:48.868Z,6.03
2023-05-07T03:55:38.643Z,5.83
2023-05-07T03:58:27.097Z,9.30
2023-05-07T04:01:15.681Z,6.47
2023-05-07T04:04:05.326Z,6.03
2023-05-07T04:06:54.000Z,6.03
2023-05-07T04:09:42.505Z,10.33
2023-05-07T04:12:32.290Z,7.60
2023-05-07T04:15:20.894Z,5.33
2023-05-07T04:18:09.497Z,6.87
2023-05-07T04:20:58.104Z,6.00
2023-05-07T04:23:46.717Z,5.80
2023-05-07T04:26:35.156Z,7.30
2023-05-07T04:29:24.901Z,8.80
2023-05-07T04:32:13.730Z,5.77
2023-05-07T04:35:02.350Z,7.00
2023-05-07T04:37:50.885Z,7.47
2023-05-07T04:40:39.886Z,6.30
2023-05-07T04:43:28.383Z,6.27
2023-05-07T04:46:18.215Z,5.90
2023-05-07T04:49:06.858Z,7.37
2023-05-07T04:51:55.428Z,6.40
2023-05-07T04:54:43.962Z,6.17
2023-05-07T04:57:32.496Z,5.20
2023-05-07T05:00:21.210Z,5.80
2023-05-07T05:03:11.306Z,6.10
2023-05-07T05:06:00.835Z,6.70
2023-05-07T05:08:49.268Z,6.87
2023-05-07T05:11:37.813Z,5.87
2023-05-07T05:14:26.301Z,6.50
2023-05-07T05:17:14.845Z,6.60
2023-05-07T05:20:05.681Z,6.13
2023-05-07T05:22:54.151Z,6.10
2023-05-07T05:25:42.620Z,8.00
2023-05-07T05:28:31.127Z,6.00
2023-05-07T05:31:19.612Z,6.20
2023-05-07T05:34:08.098Z,6.47
2023-05-07T05:36:58.005Z,6.50
2023-05-07T05:39:46.576Z,5.70
2023-05-07T05:42:35.236Z,5.07
2023-05-07T05:45:23.819Z,5.77
2023-05-07T05:48:12.475Z,5.83
2023-05-07T05:51:01.090Z,6.27
2023-05-07T05:53:51.288Z,6.80
2023-05-07T05:56:39.838Z,6.17
2023-05-07T05:59:28.546Z,6.03
2023-05-07T06:02:17.208Z,5.73
2023-05-07T06:05:06.890Z,6.13
2023-05-07T06:07:55.548Z,8.13
2023-05-07T06:10:45.412Z,6.47
2023-05-07T06:13:33.953Z,5.30
2023-05-07T06:16:22.571Z,7.43
2023-05-07T06:19:10.999Z,5.67
2023-05-07T06:21:59.517Z,6.13
2023-05-07T06:24:48.082Z,5.10
2023-05-07T06:27:37.863Z,6.00
2023-05-07T06:30:27.743Z,5.37
2023-05-07T06:33:16.241Z,5.33
2023-05-07T06:36:05.333Z,4.97
2023-05-07T06:38:53.809Z,5.70
2023-05-07T06:41:42.339Z,5.10
2023-05-07T06:44:32.251Z,5.93
2023-05-07T06:47:20.853Z,5.83
2023-05-07T06:50:10.919Z,4.70
2023-05-07T06:52:59.600Z,4.20
2023-05-07T06:55:48.030Z,4.13
2023-05-07T06:58:36.494Z,3.90
2023-05-07T07:01:26.309Z,4.57
2023-05-07T07:04:14.995Z,4.10
2023-05-07T07:07:03.604Z,4.13
2023-05-07T07:09:55.322Z,3.83
2023-05-07T07:12:44.914Z,3.57
2023-05-07T07:15:33.466Z,3.60
2023-05-07T07:18:23.323Z,3.57
2023-05-07T07:21:11.979Z,3.30
2023-05-07T07:24:00.499Z,4.67
2023-05-07T07:26:49.017Z,3.93
2023-05-07T07:29:37.524Z,3.10
2023-05-07T07:32:26.689Z,3.20
2023-05-07T07:35:16.966Z,3.27
2023-05-07T07:38:05.684Z,6.40
2023-05-07T07:40:54.210Z,2.83
2023-05-07T07:43:42.682Z,3.30
2023-05-07T07:46:31.288Z,3.90
2023-05-07T07:49:19.839Z,3.20
2023-05-07T07:52:09.755Z,3.27
2023-05-07T07:54:58.277Z,3.37
2023-05-07T07:57:46.740Z,5.50
2023-05-07T08:00:35.327Z,4.60
2023-05-07T08:03:23.949Z,4.63
2023-05-07T08:06:12.505Z,3.20
2023-05-07T08:09:02.784Z,3.13
2023-05-07T08:11:51.802Z,3.07
2023-05-07T08:14:40.609Z,3.80
2023-05-07T08:17:29.263Z,3.30
2023-05-07T08:20:18.046Z,3.00
2023-05-07T08:23:07.336Z,3.13
2023-05-07T08:25:57.378Z,5.87
2023-05-07T08:28:45.950Z,3.07
2023-05-07T08:31:34.794Z,3.07
2023-05-07T08:34:24.237Z,3.27
2023-05-07T08:37:12.841Z,4.10
2023-05-07T08:40:01.547Z,4.17
2023-05-07T08:42:51.989Z,2.70
2023-05-07T08:45:41.866Z,3.57
2023-05-07T08:48:31.874Z,2.93
2023-05-07T08:51:21.589Z,3.43
2023-05-07T08:54:11.398Z,3.43
2023-05-07T08:57:00.487Z,3.37
2023-05-07T08:59:50.357Z,3.60
2023-05-07T09:02:39.064Z,5.20
2023-05-07T09:05:27.569Z,3.00
2023-05-07T09:08:17.308Z,3.40
2023-05-07T09:11:06.138Z,3.30
2023-05-07T09:13:56.468Z,3.17
2023-05-07T09:16:46.337Z,3.53
2023-05-07T09:19:35.179Z,4.50
2023-05-07T09:22:23.907Z,3.00
2023-05-07T09:25:12.672Z,3.70
2023-05-07T09:28:01.827Z,3.10
2023-05-07T09:30:50.382Z,3.93
2023-05-07T09:33:40.539Z,4.40
2023-05-07T09:36:29.349Z,3.27
2023-05-07T09:39:18.438Z,3.10
2023-05-07T09:42:07.217Z,4.90
2023-05-07T09:44:57.002Z,4.00
2023-05-07T09:47:46.683Z,3.77
2023-05-07T09:50:39.523Z,5.43
2023-05-07T09:53:28.181Z,3.33
2023-05-07T09:56:17.459Z,4.40
2023-05-07T09:59:07.786Z,4.43
2023-05-07T10:01:59.245Z,3.37
2023-05-07T10:04:48.493Z,3.87
2023-05-07T10:07:38.447Z,3.77
2023-05-07T10:10:27.064Z,3.60
2023-05-07T10:13:15.865Z,6.57
2023-05-07T10:16:05.667Z,3.70
2023-05-07T10:18:55.361Z,3.73
2023-05-07T10:21:47.158Z,3.77
2023-05-07T10:24:38.918Z,4.20
2023-05-07T10:27:27.721Z,4.13
2023-05-07T10:30:24.214Z,3.73
2023-05-07T10:33:14.383Z,3.23
2023-05-07T10:36:05.448Z,6.23
2023-05-07T10:38:54.423Z,3.83
2023-05-07T10:41:44.392Z,4.30
2023-05-07T10:44:33.278Z,4.23
2023-05-07T10:47:22.027Z,4.87
2023-05-07T10:50:24.532Z,4.50
2023-05-07T10:53:27.609Z,3.80
2023-05-07T10:56:29.151Z,4.83
2023-05-07T10:59:42.929Z,4.53
2023-05-07T11:03:09.149Z,3.50
2023-05-07T11:06:14.707Z,3.40
2023-05-07T11:09:03.331Z,4.50
2023-05-07T11:11:53.136Z,3.70
2023-05-07T11:14:48.920Z,3.90
2023-05-07T11:17:54.708Z,4.17
2023-05-07T11:20:57.076Z,3.90
2023-05-07T11:24:01.499Z,5.00
2023-05-07T11:26:50.929Z,4.30
2023-05-07T11:29:39.833Z,4.23
2023-05-07T11:32:31.037Z,4.10
2023-05-07T11:35:20.159Z,4.30
2023-05-07T11:38:08.821Z,3.10
2023-05-07T11:40:59.886Z,3.40
2023-05-07T11:44:01.405Z,3.70
2023-05-07T11:46:50.654Z,3.60
2023-05-07T11:49:41.643Z,3.57
2023-05-07T11:52:30.258Z,3.63
2023-05-07T11:55:20.503Z,3.43
2023-05-07T11:58:10.748Z,3.97
2023-05-07T12:00:59.449Z,3.30
2023-05-07T12:03:48.362Z,3.50
2023-05-07T12:06:40.221Z,4.53
2023-05-07T12:09:28.794Z,3.53
2023-05-07T12:12:18.357Z,3.30
2023-05-07T12:15:08.011Z,3.97
2023-05-07T12:17:56.722Z,3.97
2023-05-07T12:20:46.101Z,4.17
2023-05-07T12:23:36.872Z,3.27
2023-05-07T12:26:25.836Z,3.63
2023-05-07T12:29:14.353Z,4.20
2023-05-07T12:32:04.135Z,3.70
2023-05-07T12:34:53.835Z,3.57
2023-05-07T12:37:43.092Z,4.63
2023-05-07T12:40:39.357Z,4.83
2023-05-07T12:43:28.843Z,3.97
2023-05-07T12:46:19.452Z,3.97
2023-05-07T12:49:08.017Z,4.27
2023-05-07T12:51:57.170Z,3.80
2023-05-07T12:54:46.444Z,3.10
2023-05-07T12:57:41.698Z,3.20
2023-05-07T13:00:37.707Z,3.60
2023-05-07T13:03:27.852Z,3.50
2023-05-07T13:06:16.570Z,4.63
2023-05-07T13:09:05.651Z,4.63
2023-05-07T13:11:54.411Z,4.57
2023-05-07T13:14:44.495Z,3.50
2023-05-07T13:17:33.161Z,3.23
2023-05-07T13:20:21.773Z,5.53
2023-05-07T13:23:10.558Z,3.17
2023-05-07T13:25:59.076Z,3.53
2023-05-07T13:28:47.618Z,3.27
2023-05-07T13:31:37.590Z,3.43
2023-05-07T13:34:26.348Z,3.37
2023-05-07T13:37:15.291Z,3.47
2023-05-07T13:40:04.682Z,3.97
2023-05-07T13:42:53.234Z,3.27
2023-05-07T13:45:42.124Z,7.20
2023-05-07T13:48:32.013Z,2.60
2023-05-07T13:51:20.498Z,2.47
2023-05-07T13:54:09.017Z,2.30
2023-05-07T13:56:57.592Z,2.00
2023-05-07T13:59:46.334Z,1.90
2023-05-07T14:02:35.233Z,2.57
2023-05-07T14:05:25.624Z,2.33
2023-05-07T14:08:14.851Z,2.00
2023-05-07T14:11:03.636Z,2.30
2023-05-07T14:13:52.143Z,3.53
2023-05-07T14:16:40.761Z,2.10
2023-05-07T14:19:30.612Z,1.50
2023-05-07T14:22:20.539Z,2.40
2023-05-07T14:25:10.658Z,1.67
2023-05-07T14:27:59.315Z,1.77
2023-05-07T14:30:49.027Z,3.40
2023-05-07T14:33:39.135Z,1.90
2023-05-07T14:36:28.948Z,1.80
2023-05-07T14:39:18.835Z,2.00
2023-05-07T14:42:08.808Z,3.70
2023-05-07T14:44:57.379Z,2.00
2023-05-07T14:47:46.070Z,2.87
2023-05-07T14:50:34.630Z,1.97
2023-05-07T14:53:23.166Z,1.73
2023-05-07T14:56:13.961Z,2.40
2023-05-07T14:59:02.703Z,1.97
2023-05-07T15:01:51.243Z,2.53
2023-05-07T15:04:41.382Z,1.60
2023-05-07T15:07:29.850Z,1.70
2023-05-07T15:10:18.632Z,1.63
2023-05-07T15:13:08.860Z,1.63
2023-05-07T15:15:57.403Z,2.13
2023-05-07T15:18:46.153Z,2.73
2023-05-07T15:21:35.783Z,4.80
2023-05-07T15:24:24.602Z,2.20
2023-05-07T15:27:13.203Z,1.80
2023-05-07T15:30:03.323Z,2.83
2023-05-07T15:32:52.053Z,2.53
2023-05-07T15:35:40.634Z,1.90
2023-05-07T15:38:29.329Z,1.90
2023-05-07T15:41:17.889Z,1.90
2023-05-07T15:44:06.500Z,2.13
2023-05-07T15:46:56.458Z,3.00
2023-05-07T15:49:45.035Z,2.07
2023-05-07T15:52:33.546Z,2.30
2023-05-07T15:55:22.144Z,2.37
2023-05-07T15:58:10.767Z,5.17
2023-05-07T16:00:59.398Z,2.23
2023-05-07T16:03:49.468Z,2.37
2023-05-07T16:06:38.105Z,2.60
2023-05-07T16:09:28.236Z,2.33
2023-05-07T16:12:18.237Z,3.27
2023-05-07T16:15:08.410Z,3.77
2023-05-07T16:17:58.266Z,2.50
2023-05-07T16:20:48.528Z,4.37
2023-05-07T16:23:37.556Z,2.23
2023-05-07T16:26:26.280Z,3.40
2023-05-07T16:29:15.856Z,5.20
2023-05-07T16:32:04.464Z,4.80
2023-05-07T16:34:53.159Z,2.40
2023-05-07T16:37:43.217Z,4.47
2023-05-07T16:40:31.800Z,2.00
2023-05-07T16:43:20.520Z,2.63
2023-05-07T16:46:09.407Z,2.13
2023-05-07T16:48:58.198Z,2.63
2023-05-07T16:51:47.143Z,2.40
2023-05-07T16:54:38.135Z,2.50
2023-05-07T16:57:26.782Z,4.00
2023-05-07T17:00:16.783Z,3.30
2023-05-07T17:03:06.100Z,3.80
2023-05-07T17:05:55.125Z,3.37
2023-05-07T17:08:43.779Z,3.03
2023-05-07T17:11:35.100Z,3.60
2023-05-07T17:14:23.760Z,2.60
2023-05-07T17:17:12.342Z,5.53
2023-05-07T17:20:01.311Z,4.10
2023-05-07T17:22:50.730Z,3.10
2023-05-07T17:25:39.268Z,3.17
2023-05-07T17:28:29.087Z,3.07
2023-05-07T17:31:17.696Z,2.77
2023-05-07T17:34:06.247Z,3.37
2023-05-07T17:36:54.774Z,3.80
2023-05-07T17:39:45.051Z,3.60
2023-05-07T17:42:33.532Z,2.70
2023-05-07T17:45:23.885Z,4.00
2023-05-07T17:48:12.773Z,4.67
2023-05-07T17:51:04.537Z,3.27
2023-05-07T17:53:53.290Z,3.27
2023-05-07T17:56:41.797Z,3.03
2023-05-07T17:59:30.556Z,2.87
2023-05-07T18:02:20.479Z,2.70
2023-05-07T18:05:09.831Z,2.80
2023-05-07T18:07:58.383Z,6.17
2023-05-07T18:10:46.939Z,2.73
2023-05-07T18:13:35.541Z,3.00
2023-05-07T18:16:24.061Z,2.60
2023-05-07T18:19:14.004Z,2.93
2023-05-07T18:22:02.540Z,3.90
2023-05-07T18:24:51.213Z,3.00
2023-05-07T18:27:39.676Z,5.83
2023-05-07T18:30:28.129Z,3.60
2023-05-07T18:33:16.711Z,2.80
2023-05-07T18:36:07.620Z,3.27
2023-05-07T18:38:56.129Z,3.30
2023-05-07T18:41:45.595Z,4.00
2023-05-07T18:44:37.463Z,4.27
2023-05-07T18:47:25.991Z,3.60
2023-05-07T18:50:15.289Z,4.30
2023-05-07T18:53:05.058Z,3.90
2023-05-07T18:55:53.991Z,3.83
2023-05-07T18:58:42.469Z,3.90
2023-05-07T19:01:31.052Z,3.30
2023-05-07T19:04:20.191Z,3.73
2023-05-07T19:07:08.726Z,3.33
2023-05-07T19:10:04.906Z,3.90
2023-05-07T19:12:55.674Z,4.40
2023-05-07T19:15:44.480Z,4.90
2023-05-07T19:18:33.140Z,4.17
2023-05-07T19:21:21.886Z,4.50
2023-05-07T19:24:10.339Z,4.80
2023-05-07T19:27:00.192Z,8.40
2023-05-07T19:29:48.646Z,4.00
2023-05-07T19:32:37.130Z,4.20
2023-05-07T19:35:25.639Z,3.67
2023-05-07T19:38:14.108Z,3.97
2023-05-07T19:41:02.680Z,5.87
2023-05-07T19:43:52.495Z,4.00
2023-05-07T19:46:44.910Z,6.50
2023-05-07T19:49:33.886Z,4.00
2023-05-07T19:52:22.387Z,4.97
2023-05-07T19:55:12.635Z,4.37
2023-05-07T19:58:01.376Z,3.93
2023-05-07T20:00:51.290Z,5.23
2023-05-07T20:03:39.912Z,3.77
2023-05-07T20:06:28.470Z,3.70
2023-05-07T20:09:16.953Z,4.20
2023-05-07T20:12:06.686Z,6.13
2023-05-07T20:14:55.139Z,4.60
2023-05-07T20:17:45.109Z,4.17
2023-05-07T20:20:33.683Z,4.40
2023-05-07T20:23:22.148Z,5.70
2023-05-07T20:26:10.603Z,5.97
2023-05-07T20:28:59.099Z,6.73
2023-05-07T20:31:47.620Z,4.60
2023-05-07T20:34:37.722Z,4.70
2023-05-07T20:37:26.865Z,4.90
2023-05-07T20:40:16.852Z,4.97
2023-05-07T20:43:07.412Z,4.77
2023-05-07T20:46:00.378Z,5.20
2023-05-07T20:48:49.389Z,4.23
2023-05-07T20:51:39.227Z,4.97
2023-05-07T20:54:28.688Z,5.17
2023-05-07T20:57:19.394Z,5.00
2023-05-07T21:00:09.313Z,4.47
2023-05-07T21:02:57.828Z,5.23
2023-05-07T21:05:51.953Z,4.47
2023-05-07T21:08:41.846Z,4.80
2023-05-07T21:11:30.285Z,5.53
2023-05-07T21:14:18.742Z,9.13
2023-05-07T21:17:07.419Z,5.13
2023-05-07T21:19:55.955Z,5.10
2023-05-07T21:22:44.388Z,5.07
2023-05-07T21:25:34.266Z,5.00
2023-05-07T21:28:22.714Z,4.60
2023-05-07T21:31:11.849Z,5.27
2023-05-07T21:34:00.321Z,5.47
2023-05-07T21:36:48.776Z,5.37
2023-05-07T21:39:37.337Z,5.10
2023-05-07T21:42:28.254Z,4.23
2023-05-07T21:45:16.750Z,5.57
2023-05-07T21:48:05.796Z,5.30
2023-05-07T21:51:01.203Z,5.57
2023-05-07T21:53:49.728Z,4.70
2023-05-07T21:56:38.440Z,6.33
2023-05-07T21:59:28.247Z,5.40
2023-05-07T22:02:16.739Z,6.10
2023-05-07T22:05:05.620Z,6.17
2023-05-07T22:07:54.305Z,5.83
2023-05-07T22:10:42.849Z,6.50
2023-05-07T22:13:31.415Z,6.00
2023-05-07T22:16:21.514Z,6.10
2023-05-07T22:19:10.534Z,6.27
2023-05-07T22:21:59.053Z,6.67
2023-05-07T22:24:47.574Z,5.70
2023-05-07T22:27:36.089Z,5.83
2023-05-07T22:30:24.841Z,7.20
2023-05-07T22:33:14.763Z,6.03
2023-05-07T22:36:03.315Z,5.90
2023-05-07T22:38:51.955Z,5.37
2023-05-07T22:41:40.750Z,6.23
2023-05-07T22:44:29.310Z,11.77
2023-05-07T22:47:17.812Z,6.17
2023-05-07T22:50:09.249Z,7.50
2023-05-07T22:52:58.208Z,6.73
2023-05-07T22:55:46.927Z,6.93
2023-05-07T22:58:35.571Z,6.30
2023-05-07T23:01:24.278Z,5.90
2023-05-07T23:04:13.145Z,5.77
2023-05-07T23:07:02.924Z,5.57
2023-05-07T23:09:51.404Z,5.43
2023-05-07T23:12:39.898Z,5.47
2023-05-07T23:15:28.483Z,5.20
2023-05-07T23:18:17.031Z,5.20
2023-05-07T23:21:06.667Z,5.60
2023-05-07T23:23:56.733Z,5.50
2023-05-07T23:26:45.489Z,5.40
2023-05-07T23:29:34.407Z,6.30
2023-05-07T23:32:22.930Z,5.47
2023-05-07T23:35:11.430Z,5.93
2023-05-07T23:38:00.249Z,5.23
2023-05-07T23:40:50.057Z,5.60
2023-05-07T23:43:38.517Z,4.80
2023-05-07T23:46:27.162Z,5.70
2023-05-07T23:49:15.613Z,5.87
2023-05-07T23:52:04.096Z,5.53
2023-05-07T23:54:52.580Z,5.23
2023-05-07T23:57:42.401Z,6.00
